createdAt,value
2022-08-09T00:00:25.600Z,1.60
2022-08-09T00:02:58.973Z,1.60
2022-08-09T00:06:19.834Z,1.80
2022-08-09T00:08:32.358Z,1.40
2022-08-09T00:11:24.294Z,1.55
2022-08-09T00:13:58.505Z,1.70
2022-08-09T00:16:38.339Z,1.40
2022-08-09T00:19:12.718Z,1.38
2022-08-09T00:21:55.827Z,1.58
2022-08-09T00:24:31.760Z,1.63
2022-08-09T00:27:04.923Z,1.55
2022-08-09T00:29:39.540Z,1.42
2022-08-09T00:32:30.648Z,1.83
2022-08-09T00:35:03.842Z,1.65
2022-08-09T00:37:36.567Z,1.60
2022-08-09T00:40:16.610Z,2.00
2022-08-09T00:44:14.337Z,1.63
2022-08-09T00:45:50.441Z,1.70
2022-08-09T00:48:26.755Z,1.90
2022-08-09T00:51:11.964Z,1.70
2022-08-09T00:53:46.927Z,1.80
2022-08-09T00:56:24.745Z,1.70
2022-08-09T00:58:57.952Z,1.85
2022-08-09T01:01:44.896Z,1.70
2022-08-09T01:04:25.731Z,1.90
2022-08-09T01:07:13.927Z,1.70
2022-08-09T01:10:18.648Z,1.88
2022-08-09T01:13:22.350Z,1.60
2022-08-09T01:15:57.495Z,1.92
2022-08-09T01:18:32.514Z,2.00
2022-08-09T01:21:17.815Z,2.22
2022-08-09T01:24:04.863Z,1.80
2022-08-09T01:26:56.689Z,2.45
2022-08-09T01:29:41.395Z,2.10
2022-08-09T01:32:48.610Z,1.67
2022-08-09T01:35:38.571Z,2.25
2022-08-09T01:38:17.055Z,2.00
2022-08-09T01:41:05.689Z,2.00
2022-08-09T01:43:51.778Z,2.30
2022-08-09T01:46:32.470Z,1.70
2022-08-09T01:49:12.775Z,1.83
2022-08-09T01:51:53.987Z,2.17
2022-08-09T01:54:50.740Z,2.03
2022-08-09T01:57:40.081Z,1.90
2022-08-09T02:00:34.833Z,1.70
2022-08-09T02:03:11.365Z,2.15
2022-08-09T02:05:53.631Z,2.10
2022-08-09T02:08:57.780Z,1.80
2022-08-09T02:11:42.943Z,1.80
2022-08-09T02:14:25.164Z,2.10
2022-08-09T02:17:15.238Z,2.30
2022-08-09T02:19:53.083Z,2.00
2022-08-09T02:22:41.889Z,2.08
2022-08-09T02:25:24.100Z,2.60
2022-08-09T02:28:05.471Z,2.03
2022-08-09T02:30:47.742Z,2.28
2022-08-09T02:33:38.420Z,2.22
2022-08-09T02:36:54.118Z,1.60
2022-08-09T02:39:41.863Z,1.77
2022-08-09T02:42:20.125Z,2.28
2022-08-09T02:45:06.711Z,2.30
2022-08-09T02:47:57.362Z,1.90
2022-08-09T02:50:56.540Z,2.00
2022-08-09T02:53:53.136Z,2.08
2022-08-09T02:56:34.590Z,2.08
2022-08-09T02:59:13.829Z,2.13
2022-08-09T03:02:06.097Z,2.33
2022-08-09T03:04:42.010Z,2.20
2022-08-09T03:07:18.407Z,2.47
2022-08-09T03:09:54.489Z,2.17
2022-08-09T03:12:30.785Z,2.40
2022-08-09T03:15:06.775Z,2.03
2022-08-09T03:17:43.843Z,2.10
2022-08-09T03:20:17.417Z,1.88
2022-08-09T03:22:56.965Z,1.90
2022-08-09T03:26:03.167Z,2.40
2022-08-09T03:28:27.139Z,2.30
2022-08-09T03:31:09.917Z,2.40
2022-08-09T03:33:54.383Z,2.50
2022-08-09T03:36:28.375Z,2.43
2022-08-09T03:39:01.264Z,2.40
2022-08-09T03:41:45.703Z,2.13
2022-08-09T03:44:27.749Z,2.30
2022-08-09T03:47:04.991Z,2.33
2022-08-09T03:49:58.308Z,2.50
2022-08-09T03:52:32.772Z,2.17
2022-08-09T03:55:09.820Z,2.60
2022-08-09T03:57:53.567Z,2.55
2022-08-09T04:00:31.228Z,2.22
2022-08-09T04:03:04.003Z,2.50
2022-08-09T04:05:40.286Z,2.67
2022-08-09T04:08:13.443Z,2.23
2022-08-09T04:10:48.010Z,2.33
2022-08-09T04:13:26.420Z,2.60
2022-08-09T04:16:19.902Z,2.47
2022-08-09T04:18:54.194Z,2.77
2022-08-09T04:21:27.076Z,2.70
2022-08-09T04:24:02.359Z,2.70
2022-08-09T04:26:38.157Z,2.50
2022-08-09T04:29:15.607Z,2.60
2022-08-09T04:31:48.615Z,2.27
2022-08-09T04:34:30.491Z,2.50
2022-08-09T04:37:04.690Z,2.43
2022-08-09T04:39:40.699Z,2.23
2022-08-09T04:42:15.899Z,2.80
2022-08-09T04:44:51.386Z,2.47
2022-08-09T04:47:27.739Z,2.77
2022-08-09T04:50:19.624Z,2.70
2022-08-09T04:52:57.345Z,2.37
2022-08-09T04:55:39.627Z,2.70
2022-08-09T04:58:15.074Z,2.50
2022-08-09T05:00:49.494Z,2.80
2022-08-09T05:03:40.007Z,2.80
2022-08-09T05:06:26.916Z,2.63
2022-08-09T05:09:01.430Z,3.00
2022-08-09T05:11:35.539Z,2.40
2022-08-09T05:14:09.036Z,3.17
2022-08-09T05:16:58.379Z,2.43
2022-08-09T05:19:44.951Z,2.53
2022-08-09T05:22:33.355Z,2.60
2022-08-09T05:25:12.502Z,2.50
2022-08-09T05:27:48.265Z,2.80
2022-08-09T05:30:22.903Z,2.65
2022-08-09T05:32:56.144Z,2.35
2022-08-09T05:35:29.092Z,2.45
2022-08-09T05:38:04.880Z,2.60
2022-08-09T05:40:38.752Z,2.42
2022-08-09T05:43:11.552Z,2.40
2022-08-09T05:45:55.656Z,2.40
2022-08-09T05:48:32.904Z,2.40
2022-08-09T05:51:30.156Z,2.40
2022-08-09T05:53:59.637Z,2.15
2022-08-09T05:56:33.491Z,2.05
2022-08-09T05:59:07.325Z,2.35
2022-08-09T06:01:43.613Z,2.42
2022-08-09T06:04:16.600Z,2.70
2022-08-09T06:06:56.539Z,2.65
2022-08-09T06:09:54.188Z,2.10
2022-08-09T06:12:22.614Z,2.17
2022-08-09T06:15:01.570Z,1.90
2022-08-09T06:17:40.389Z,1.95
2022-08-09T06:20:13.783Z,1.80
2022-08-09T06:22:51.338Z,1.50
2022-08-09T06:25:24.387Z,1.50
2022-08-09T06:27:57.417Z,1.92
2022-08-09T06:30:30.163Z,1.60
2022-08-09T06:33:29.911Z,1.60
2022-08-09T06:35:58.625Z,1.40
2022-08-09T06:38:37.428Z,1.60
2022-08-09T06:41:18.183Z,1.60
2022-08-09T06:43:53.109Z,1.60
2022-08-09T06:46:39.579Z,1.60
2022-08-09T06:49:16.078Z,1.40
2022-08-09T06:51:55.698Z,1.63
2022-08-09T06:54:29.002Z,1.70
2022-08-09T06:57:01.753Z,1.67
2022-08-09T07:00:53.931Z,1.67
2022-08-09T07:02:29.742Z,1.60
2022-08-09T07:05:05.436Z,1.50
2022-08-09T07:08:00.986Z,1.65
2022-08-09T07:10:34.766Z,1.52
2022-08-09T07:13:27.185Z,1.40
2022-08-09T07:16:41.316Z,1.45
2022-08-09T07:18:56.838Z,1.45
2022-08-09T07:21:30.995Z,1.77
2022-08-09T07:24:08.031Z,1.48
2022-08-09T07:26:41.092Z,1.55
2022-08-09T07:29:14.083Z,1.40
2022-08-09T07:31:48.093Z,1.60
2022-08-09T07:34:21.405Z,1.60
2022-08-09T07:36:58.760Z,1.48
2022-08-09T07:39:42.134Z,1.50
2022-08-09T07:42:15.630Z,1.48
2022-08-09T07:44:51.210Z,1.30
2022-08-09T07:47:26.396Z,1.60
2022-08-09T07:50:08.047Z,1.55
2022-08-09T07:52:42.928Z,1.70
2022-08-09T07:55:17.272Z,1.45
2022-08-09T07:57:52.775Z,1.63
2022-08-09T08:00:35.606Z,1.60
2022-08-09T08:03:11.527Z,1.33
2022-08-09T08:05:54.051Z,1.10
2022-08-09T08:09:02.066Z,1.30
2022-08-09T08:12:10.553Z,1.63
2022-08-09T08:14:16.863Z,1.30
2022-08-09T08:17:00.714Z,1.42
2022-08-09T08:19:41.759Z,1.45
2022-08-09T08:22:17.233Z,1.48
2022-08-09T08:24:57.534Z,1.67
2022-08-09T08:27:40.581Z,1.30
2022-08-09T08:30:14.105Z,1.20
2022-08-09T08:32:52.692Z,1.48
2022-08-09T08:35:28.226Z,1.60
2022-08-09T08:38:11.795Z,1.33
2022-08-09T08:40:45.004Z,1.25
2022-08-09T08:43:23.965Z,1.85
2022-08-09T08:46:10.040Z,1.50
2022-08-09T08:48:57.429Z,1.33
2022-08-09T08:51:41.500Z,1.40
2022-08-09T08:54:20.157Z,1.40
2022-08-09T08:56:57.572Z,1.40
2022-08-09T08:59:44.571Z,1.70
2022-08-09T09:02:30.872Z,1.50
2022-08-09T09:05:10.137Z,1.60
2022-08-09T09:07:50.939Z,1.40
2022-08-09T09:10:27.291Z,1.38
2022-08-09T09:13:09.529Z,1.60
2022-08-09T09:15:49.255Z,1.23
2022-08-09T09:18:24.712Z,1.83
2022-08-09T09:20:58.023Z,1.20
2022-08-09T09:23:49.744Z,1.38
2022-08-09T09:26:35.012Z,1.83
2022-08-09T09:29:10.975Z,1.20
2022-08-09T09:32:01.828Z,1.25
2022-08-09T09:34:39.268Z,1.45
2022-08-09T09:37:32.193Z,1.13
2022-08-09T09:40:07.363Z,1.52
2022-08-09T09:42:43.123Z,1.38
2022-08-09T09:45:26.155Z,1.58
2022-08-09T09:48:03.908Z,1.42
2022-08-09T09:50:49.657Z,1.60
2022-08-09T09:53:57.269Z,1.30
2022-08-09T09:56:33.876Z,1.25
2022-08-09T09:59:10.950Z,1.17
2022-08-09T10:01:59.805Z,1.30
2022-08-09T10:04:32.969Z,1.17
2022-08-09T10:07:20.332Z,1.40
2022-08-09T10:09:58.743Z,1.42
2022-08-09T10:12:43.557Z,1.25
2022-08-09T10:15:50.709Z,1.30
2022-08-09T10:19:05.289Z,1.30
2022-08-09T10:21:50.674Z,1.33
2022-08-09T10:24:25.421Z,1.25
2022-08-09T10:27:16.985Z,1.52
2022-08-09T10:30:29.963Z,1.30
2022-08-09T10:32:51.531Z,1.15
2022-08-09T10:35:24.785Z,1.25
2022-08-09T10:38:06.511Z,2.05
2022-08-09T10:40:59.557Z,1.20
2022-08-09T10:43:36.066Z,1.40
2022-08-09T10:46:55.070Z,1.00
2022-08-09T10:49:54.249Z,0.98
2022-08-09T10:53:01.882Z,1.08
2022-08-09T10:55:58.561Z,1.00
2022-08-09T10:58:39.497Z,0.80
2022-08-09T11:03:18.908Z,1.00
2022-08-09T11:04:31.322Z,1.02
2022-08-09T11:07:05.284Z,0.80
2022-08-09T11:09:38.293Z,1.10
2022-08-09T11:15:33.672Z,1.10
2022-08-09T11:18:13.071Z,1.05
2022-08-09T11:20:50.189Z,1.08
2022-08-09T11:23:30.139Z,1.00
2022-08-09T11:26:04.084Z,1.10
2022-08-09T11:28:56.228Z,0.80
2022-08-09T11:31:49.934Z,0.82
2022-08-09T11:34:43.983Z,1.00
2022-08-09T11:37:27.957Z,0.85
2022-08-09T11:40:10.033Z,1.27
2022-08-09T11:42:48.758Z,1.00
2022-08-09T11:45:37.779Z,1.33
2022-08-09T11:48:25.191Z,0.90
2022-08-09T11:51:21.342Z,0.95
2022-08-09T11:54:27.631Z,0.98
2022-08-09T11:57:47.524Z,0.80
2022-08-09T12:00:33.369Z,1.13
2022-08-09T12:03:50.424Z,0.95
2022-08-09T12:06:12.757Z,1.05
2022-08-09T12:08:56.805Z,0.93
2022-08-09T12:11:37.845Z,0.90
2022-08-09T12:14:40.977Z,0.95
2022-08-09T12:17:28.029Z,1.25
2022-08-09T12:20:34.519Z,1.10
2022-08-09T12:23:07.594Z,0.90
2022-08-09T12:25:49.491Z,1.25
2022-08-09T12:29:11.993Z,0.85
2022-08-09T12:31:58.177Z,1.00
2022-08-09T12:34:32.389Z,1.13
2022-08-09T12:37:21.381Z,1.00
2022-08-09T12:40:17.997Z,1.00
2022-08-09T12:42:53.171Z,1.20
2022-08-09T12:45:33.519Z,1.08
2022-08-09T12:48:31.005Z,1.00
2022-08-09T12:51:04.748Z,1.30
2022-08-09T12:53:41.241Z,0.80
2022-08-09T12:56:40.125Z,1.05
2022-08-09T12:59:20.365Z,0.93
2022-08-09T13:01:59.295Z,1.40
2022-08-09T13:04:38.085Z,1.02
2022-08-09T13:07:19.285Z,1.15
2022-08-09T13:10:04.641Z,0.90
2022-08-09T13:13:09.743Z,1.10
2022-08-09T13:16:02.023Z,0.90
2022-08-09T13:18:53.831Z,1.20
2022-08-09T13:22:35.666Z,1.92
2022-08-09T13:24:44.625Z,1.10
2022-08-09T13:27:26.261Z,1.00
2022-08-09T13:30:49.255Z,1.10
2022-08-09T13:32:58.552Z,1.05
2022-08-09T13:35:34.600Z,1.13
2022-08-09T13:38:54.349Z,1.17
2022-08-09T13:41:55.145Z,1.20
2022-08-09T13:44:17.102Z,1.02
2022-08-09T13:47:27.766Z,1.15
2022-08-09T13:49:57.532Z,1.00
2022-08-09T13:52:34.624Z,0.90
2022-08-09T13:55:09.108Z,0.95
2022-08-09T13:57:55.992Z,1.00
2022-08-09T14:00:36.587Z,0.80
2022-08-09T14:03:58.170Z,1.10
2022-08-09T14:06:19.531Z,0.85
2022-08-09T14:08:59.358Z,0.90
2022-08-09T14:11:32.219Z,0.80
2022-08-09T14:14:25.737Z,1.17
2022-08-09T14:17:00.930Z,0.95
2022-08-09T14:19:34.601Z,0.90
2022-08-09T14:22:07.577Z,0.90
2022-08-09T14:24:53.456Z,1.00
2022-08-09T14:27:27.222Z,0.90
2022-08-09T14:30:36.533Z,1.10
2022-08-09T14:33:01.171Z,1.00
2022-08-09T14:35:52.359Z,1.00
2022-08-09T14:38:26.336Z,0.90
2022-08-09T14:41:04.273Z,0.80
2022-08-09T14:43:53.441Z,0.98
2022-08-09T14:46:54.752Z,1.00
2022-08-09T14:49:23.542Z,0.90
2022-08-09T14:51:58.855Z,1.00
2022-08-09T14:54:32.287Z,0.90
2022-08-09T14:57:07.998Z,0.75
2022-08-09T14:59:45.495Z,0.85
2022-08-09T15:02:21.606Z,0.85
2022-08-09T15:04:54.559Z,0.88
2022-08-09T15:07:27.540Z,0.70
2022-08-09T15:10:10.757Z,0.93
2022-08-09T15:12:47.191Z,0.90
2022-08-09T15:15:21.048Z,0.90
2022-08-09T15:17:54.784Z,1.08
2022-08-09T15:21:57.883Z,1.08
2022-08-09T15:24:02.108Z,1.00
2022-08-09T15:26:19.266Z,1.00
2022-08-09T15:29:05.138Z,0.90
2022-08-09T15:31:41.712Z,0.90
2022-08-09T15:34:33.265Z,1.00
2022-08-09T15:37:37.685Z,1.00
2022-08-09T15:40:22.333Z,1.20
2022-08-09T15:42:58.463Z,1.00
2022-08-09T15:45:51.765Z,0.98
2022-08-09T15:48:28.862Z,0.90
2022-08-09T15:51:30.437Z,0.95
2022-08-09T15:54:04.780Z,1.00
2022-08-09T15:56:42.543Z,0.80
2022-08-09T15:59:17.613Z,1.15
2022-08-09T16:01:51.363Z,1.05
2022-08-09T16:04:24.221Z,1.00
2022-08-09T16:07:02.239Z,0.98
2022-08-09T16:09:57.472Z,1.10
2022-08-09T16:12:31.103Z,1.00
2022-08-09T16:15:05.906Z,1.00
2022-08-09T16:17:59.215Z,0.98
2022-08-09T16:20:32.757Z,1.00
2022-08-09T16:23:05.716Z,0.80
2022-08-09T16:25:40.872Z,0.98
2022-08-09T16:28:13.944Z,0.90
2022-08-09T16:30:58.574Z,0.90
2022-08-09T16:33:35.078Z,0.98
2022-08-09T16:36:13.068Z,1.00
2022-08-09T16:38:51.697Z,1.00
2022-08-09T16:42:02.973Z,0.85
2022-08-09T16:44:19.505Z,0.90
2022-08-09T16:46:55.100Z,0.80
2022-08-09T16:50:31.899Z,1.00
2022-08-09T16:52:28.017Z,1.00
2022-08-09T16:55:00.941Z,0.98
2022-08-09T16:58:07.942Z,1.02
2022-08-09T17:00:27.151Z,0.90
2022-08-09T17:03:00.195Z,1.10
2022-08-09T17:06:07.239Z,1.08
2022-08-09T17:08:47.005Z,0.90
2022-08-09T17:11:32.783Z,0.77
2022-08-09T17:14:25.701Z,1.10
2022-08-09T17:17:25.915Z,1.10
2022-08-09T17:20:28.624Z,0.90
2022-08-09T17:22:53.493Z,1.00
2022-08-09T17:25:30.518Z,1.00
2022-08-09T17:28:06.016Z,1.08
2022-08-09T17:30:39.732Z,1.00
2022-08-09T17:33:22.585Z,0.88
2022-08-09T17:35:56.845Z,1.00
2022-08-09T17:38:34.276Z,1.35
2022-08-09T17:41:09.900Z,1.10
2022-08-09T17:43:47.047Z,1.13
2022-08-09T17:46:35.807Z,1.10
2022-08-09T17:49:11.309Z,1.17
2022-08-09T17:51:52.329Z,1.25
2022-08-09T17:54:29.552Z,1.10
2022-08-09T17:57:02.715Z,1.05
2022-08-09T17:59:37.997Z,1.23
2022-08-09T18:02:19.678Z,1.00
2022-08-09T18:04:58.565Z,0.90
2022-08-09T18:07:31.589Z,1.30
2022-08-09T18:10:07.740Z,1.10
2022-08-09T18:13:39.306Z,3.65
2022-08-09T18:16:05.123Z,1.40
2022-08-09T18:18:32.578Z,1.23
2022-08-09T18:21:19.336Z,0.98
2022-08-09T18:24:10.692Z,0.90
2022-08-09T18:26:49.403Z,1.90
2022-08-09T18:30:37.883Z,1.38
2022-08-09T18:32:19.095Z,1.20
2022-08-09T18:34:52.190Z,1.23
2022-08-09T18:37:47.841Z,1.02
2022-08-09T18:40:18.423Z,1.65
2022-08-09T18:43:00.177Z,4.32
2022-08-09T18:46:50.005Z,1.25
2022-08-09T18:48:30.203Z,1.23
2022-08-09T18:51:05.750Z,1.77
2022-08-09T18:53:56.936Z,1.65
2022-08-09T18:56:31.499Z,1.00
2022-08-09T18:59:05.692Z,0.90
2022-08-09T19:01:43.475Z,1.10
2022-08-09T19:04:34.625Z,1.15
2022-08-09T19:07:08.185Z,1.02
2022-08-09T19:10:16.759Z,1.00
2022-08-09T19:13:20.388Z,1.10
2022-08-09T19:15:56.890Z,1.00
2022-08-09T19:18:35.799Z,1.00
2022-08-09T19:21:11.700Z,1.08
2022-08-09T19:24:35.954Z,1.00
2022-08-09T19:26:38.414Z,1.00
2022-08-09T19:29:18.203Z,0.90
2022-08-09T19:31:53.722Z,1.10
2022-08-09T19:34:36.792Z,1.17
2022-08-09T19:37:16.904Z,1.10
2022-08-09T19:40:05.114Z,1.13
2022-08-09T19:42:38.909Z,1.15
2022-08-09T19:45:12.914Z,1.02
2022-08-09T19:47:45.980Z,0.98
2022-08-09T19:50:49.587Z,0.98
2022-08-09T19:53:12.541Z,0.93
2022-08-09T19:56:02.746Z,1.15
2022-08-09T19:58:38.379Z,1.17
2022-08-09T20:01:11.884Z,1.30
2022-08-09T20:04:25.217Z,1.20
2022-08-09T20:06:37.856Z,1.40
2022-08-09T20:09:44.662Z,1.15
2022-08-09T20:12:06.021Z,1.27
2022-08-09T20:14:50.188Z,1.33
2022-08-09T20:17:26.111Z,1.48
2022-08-09T20:20:05.675Z,1.10
2022-08-09T20:22:42.890Z,1.25
2022-08-09T20:25:22.462Z,1.27
2022-08-09T20:27:56.150Z,1.23
2022-08-09T20:30:29.136Z,1.30
2022-08-09T20:33:02.876Z,1.10
2022-08-09T20:35:39.753Z,1.17
2022-08-09T20:38:27.589Z,1.20
2022-08-09T20:41:03.213Z,1.45
2022-08-09T20:43:38.812Z,1.10
2022-08-09T20:46:43.302Z,1.40
2022-08-09T20:49:11.338Z,1.20
2022-08-09T20:51:50.484Z,1.20
2022-08-09T20:54:24.775Z,1.40
2022-08-09T20:56:57.817Z,1.30
2022-08-09T21:00:30.825Z,1.35
2022-08-09T21:02:23.761Z,1.17
2022-08-09T21:05:54.869Z,1.30
2022-08-09T21:07:50.207Z,1.27
2022-08-09T21:10:24.185Z,1.30
2022-08-09T21:13:03.857Z,1.30
2022-08-09T21:15:37.701Z,1.40
2022-08-09T21:18:27.609Z,1.15
2022-08-09T21:21:01.734Z,1.40
2022-08-09T21:23:51.675Z,1.30
2022-08-09T21:26:24.764Z,1.38
2022-08-09T21:28:57.671Z,1.40
2022-08-09T21:31:48.520Z,1.38
2022-08-09T21:34:28.617Z,1.42
2022-08-09T21:37:02.337Z,1.50
2022-08-09T21:39:41.700Z,1.40
2022-08-09T21:42:16.940Z,1.50
2022-08-09T21:44:49.840Z,1.38
2022-08-09T21:47:23.260Z,1.50
2022-08-09T21:49:56.196Z,1.50
2022-08-09T21:52:29.950Z,1.60
2022-08-09T21:55:04.746Z,1.17
2022-08-09T21:57:59.071Z,1.30
2022-08-09T22:00:33.727Z,1.65
2022-08-09T22:03:19.319Z,1.50
2022-08-09T22:05:54.249Z,1.60
2022-08-09T22:08:27.322Z,1.77
2022-08-09T22:11:49.205Z,1.90
2022-08-09T22:13:53.686Z,1.52
2022-08-09T22:16:26.680Z,1.17
2022-08-09T22:19:01.223Z,1.38
2022-08-09T22:21:49.623Z,1.60
2022-08-09T22:24:24.915Z,1.80
2022-08-09T22:26:58.033Z,1.70
2022-08-09T22:29:34.480Z,1.40
2022-08-09T22:32:29.924Z,1.80
2022-08-09T22:36:03.226Z,1.63
2022-08-09T22:38:07.316Z,1.50
2022-08-09T22:40:49.244Z,1.77
2022-08-09T22:44:01.368Z,1.60
2022-08-09T22:48:10.696Z,1.95
2022-08-09T22:49:16.719Z,1.70
2022-08-09T22:51:56.804Z,1.70
2022-08-09T22:54:30.466Z,1.40
2022-08-09T22:57:04.124Z,1.60
2022-08-09T22:59:56.229Z,1.67
2022-08-09T23:02:29.917Z,1.67
2022-08-09T23:05:02.904Z,1.50
2022-08-09T23:08:27.394Z,1.60
2022-08-09T23:11:03.055Z,1.85
2022-08-09T23:13:36.166Z,1.92
2022-08-09T23:16:09.333Z,1.90
2022-08-09T23:18:42.904Z,1.70
2022-08-09T23:21:27.685Z,1.60
2022-08-09T23:24:07.278Z,1.70
2022-08-09T23:26:40.989Z,1.70
2022-08-09T23:29:14.127Z,1.90
2022-08-09T23:31:51.256Z,1.95
2022-08-09T23:34:26.844Z,1.52
2022-08-09T23:37:00.385Z,1.83
2022-08-09T23:39:33.389Z,2.10
2022-08-09T23:42:06.531Z,1.73
2022-08-09T23:44:39.473Z,1.70
2022-08-09T23:47:12.753Z,1.70
2022-08-09T23:49:45.725Z,1.80
2022-08-09T23:52:18.752Z,1.58
2022-08-09T23:54:57.360Z,1.60
2022-08-09T23:57:30.336Z,1.85
